Time;durP1;ratioP1;P1;durP2;ratioP2;P2;SDS_P1;SDS_P2;PMS_P1;PMS_P2;Temp;Humidity;BMP_temperature;BMP_pressure;BME280_temperature;BME280_humidity;BME280_pressure;Samples;Min_cycle;Max_cycle;Signal;HPM_P1;HPM_P2
2022/04/19 00:00:48;;;;;;;10.70;4.93;;;11.60;63.30;;;;;;5012175;28;20064;-77
2022/04/19 00:03:15;;;;;;;9.93;5.00;;;11.40;64.00;;;;;;5029732;28;20054;-77
2022/04/19 00:05:42;;;;;;;8.13;4.70;;;11.30;64.80;;;;;;5029189;28;20398;-78
2022/04/19 00:08:09;;;;;;;9.13;4.55;;;11.20;66.10;;;;;;4996458;28;20049;-77
2022/04/19 00:10:35;;;;;;;8.82;5.22;;;11.10;66.20;;;;;;5029326;28;20050;-77
2022/04/19 00:13:02;;;;;;;8.45;4.68;;;11.00;66.70;;;;;;5011970;28;20052;-77
2022/04/19 00:15:32;;;;;;;10.63;4.43;;;11.00;67.40;;;;;;5028864;28;20136;-77
2022/04/19 00:18:02;;;;;;;11.60;4.85;;;10.90;68.00;;;;;;5028048;28;20049;-77
2022/04/19 00:20:29;;;;;;;9.68;4.53;;;10.90;69.20;;;;;;5013153;28;20061;-77
2022/04/19 00:22:57;;;;;;;9.80;4.53;;;10.80;70.10;;;;;;5028490;28;20057;-77
2022/04/19 00:25:24;;;;;;;9.13;4.45;;;10.60;71.90;;;;;;5029145;28;20556;-77
2022/04/19 00:27:49;;;;;;;;;;;10.50;72.70;;;;;;5029382;28;20046;-77
2022/04/19 00:30:15;;;;;;;8.10;4.50;;;10.40;72.10;;;;;;5028601;28;20059;-77
2022/04/19 00:32:41;;;;;;;11.73;4.95;;;10.20;73.10;;;;;;5028660;28;20041;-77
2022/04/19 00:35:09;;;;;;;12.13;5.45;;;10.20;74.10;;;;;;5029175;28;20053;-77
2022/04/19 00:37:36;;;;;;;11.48;6.30;;;10.20;73.80;;;;;;5012187;28;20116;-77
2022/04/19 00:40:03;;;;;;;12.30;6.45;;;10.30;72.00;;;;;;5028620;28;20299;-77
2022/04/19 00:42:30;;;;;;;11.27;5.63;;;10.40;70.60;;;;;;5028970;28;20050;-77
2022/04/19 00:44:57;;;;;;;9.98;5.75;;;10.50;71.60;;;;;;5011083;28;20059;-77
2022/04/19 00:47:23;;;;;;;10.68;5.65;;;10.40;75.00;;;;;;5028892;28;20054;-77
2022/04/19 00:49:48;;;;;;;9.80;5.30;;;10.40;77.60;;;;;;5012088;28;20403;-78
2022/04/19 00:52:15;;;;;;;13.48;5.93;;;10.30;80.60;;;;;;5012250;28;20038;-78
2022/04/19 00:54:43;;;;;;;11.98;5.32;;;10.20;85.70;;;;;;5028647;28;20053;-77
2022/04/19 00:57:10;;;;;;;16.83;5.75;;;10.10;90.50;;;;;;5029205;28;20429;-77
2022/04/19 00:59:36;;;;;;;10.57;6.28;;;9.90;92.50;;;;;;5011873;28;20045;-77
2022/04/19 01:02:03;;;;;;;9.73;5.53;;;9.70;94.20;;;;;;5007006;28;20049;-77
2022/04/19 01:04:29;;;;;;;13.20;5.60;;;9.70;96.90;;;;;;5029092;28;20529;-77
2022/04/19 01:06:56;;;;;;;9.20;5.50;;;9.80;99.90;;;;;;5011579;28;20061;-77
2022/04/19 01:09:23;;;;;;;9.13;5.32;;;9.60;99.90;;;;;;5028494;28;20509;-77
2022/04/19 01:14:36;;;;;;;9.45;5.53;;;9.40;99.90;;;;;;5028345;28;20057;-77
2022/04/19 01:17:03;;;;;;;12.25;6.05;;;9.40;99.90;;;;;;5011637;28;20394;-77
2022/04/19 01:19:29;;;;;;;10.07;5.32;;;9.40;99.90;;;;;;5029029;28;20053;-77
2022/04/19 01:21:55;;;;;;;10.55;5.70;;;9.30;99.90;;;;;;5028894;28;20510;-77
2022/04/19 01:24:23;;;;;;;10.43;5.80;;;9.30;99.90;;;;;;5031285;28;20134;-77
2022/04/19 01:26:52;;;;;;;12.68;6.20;;;9.30;99.90;;;;;;5015220;28;20075;-77
2022/04/19 01:29:18;;;;;;;12.25;5.78;;;9.10;99.90;;;;;;4995477;28;20137;-77
2022/04/19 01:31:45;;;;;;;10.52;5.82;;;9.20;99.90;;;;;;5012016;28;20213;-77
2022/04/19 01:34:11;;;;;;;11.13;6.18;;;9.10;99.90;;;;;;5012329;28;20060;-78
2022/04/19 01:36:38;;;;;;;;;;;9.00;99.90;;;;;;5013136;28;20058;-77
2022/04/19 01:39:08;;;;;;;12.02;5.85;;;8.90;99.90;;;;;;4995197;28;19932;-77
2022/04/19 01:41:35;;;;;;;12.45;6.30;;;8.90;99.90;;;;;;5012952;28;20060;-77
2022/04/19 01:44:01;;;;;;;9.95;5.68;;;8.80;99.90;;;;;;5011518;28;20046;-77
2022/04/19 01:46:27;;;;;;;11.65;6.13;;;8.80;99.90;;;;;;5026276;28;20056;-77
2022/04/19 01:48:56;;;;;;;13.23;5.63;;;8.70;99.90;;;;;;5018484;28;20044;-78
2022/04/19 01:51:22;;;;;;;11.40;5.68;;;8.60;99.90;;;;;;5019097;28;20110;-77
2022/04/19 01:53:51;;;;;;;11.68;5.60;;;8.50;99.90;;;;;;5033986;28;20445;-77
2022/04/19 01:56:17;;;;;;;11.95;6.20;;;8.40;99.90;;;;;;5034893;28;20053;-77
2022/04/19 01:58:44;;;;;;;13.48;7.10;;;8.30;99.90;;;;;;5001656;28;20055;-77
2022/04/19 02:01:10;;;;;;;14.90;6.70;;;8.30;99.90;;;;;;5017792;28;20103;-77
2022/04/19 02:03:36;;;;;;;14.05;7.22;;;8.30;99.90;;;;;;5035096;28;20053;-77
2022/04/19 02:06:11;;;;;;;13.95;6.97;;;8.20;99.90;;;;;;5034566;28;20135;-77
2022/04/19 02:08:37;;;;;;;13.07;6.90;;;8.20;99.90;;;;;;5034070;28;20059;-77
2022/04/19 02:11:04;;;;;;;13.50;7.28;;;8.20;99.90;;;;;;5034260;28;20041;-77
2022/04/19 02:13:31;;;;;;;13.48;6.93;;;8.20;99.90;;;;;;5033215;28;20086;-78
2022/04/19 02:15:58;;;;;;;11.77;6.53;;;8.20;99.90;;;;;;5016941;28;20545;-77
2022/04/19 02:18:25;;;;;;;13.95;6.97;;;8.30;99.90;;;;;;5034737;28;20041;-77
2022/04/19 02:20:51;;;;;;;13.57;6.45;;;8.20;99.90;;;;;;5017912;28;20037;-78
2022/04/19 02:23:17;;;;;;;13.32;6.57;;;8.10;99.90;;;;;;5034238;28;20044;-77
2022/04/19 02:25:43;;;;;;;10.93;6.07;;;8.00;99.90;;;;;;5001992;28;20445;-77
2022/04/19 02:28:10;;;;;;;12.13;6.15;;;8.00;99.90;;;;;;5016413;28;20228;-77
2022/04/19 02:30:36;;;;;;;12.73;6.90;;;8.10;99.90;;;;;;5033960;28;20083;-77
2022/04/19 02:33:02;;;;;;;13.23;7.20;;;7.80;99.90;;;;;;5017148;28;20056;-77
2022/04/19 02:35:28;;;;;;;12.82;6.85;;;7.80;99.90;;;;;;5034597;28;20063;-77
2022/04/19 02:37:55;;;;;;;;;;;7.70;99.90;;;;;;5033665;28;20055;-77
2022/04/19 02:40:22;;;;;;;13.70;7.68;;;7.70;99.90;;;;;;5034359;28;19921;-77
2022/04/19 02:42:49;;;;;;;15.20;7.88;;;7.70;99.90;;;;;;5001591;28;20045;-77
2022/04/19 02:45:16;;;;;;;13.38;7.22;;;7.80;99.90;;;;;;5033000;28;20114;-78
2022/04/19 02:47:42;;;;;;;15.48;7.68;;;7.70;99.90;;;;;;5033806;28;20045;-77
2022/04/19 02:50:08;;;;;;;14.73;8.00;;;7.60;99.90;;;;;;5033622;28;20495;-78
2022/04/19 02:52:34;;;;;;;15.73;8.50;;;7.60;99.90;;;;;;5032894;28;20553;-77
2022/04/19 02:55:00;;;;;;;15.63;8.27;;;7.60;99.90;;;;;;5033258;28;20041;-78
2022/04/19 02:57:26;;;;;;;17.27;8.75;;;7.60;99.90;;;;;;5001382;28;20059;-78
2022/04/19 02:59:53;;;;;;;;;;;7.50;99.90;;;;;;5033237;28;20489;-78
2022/04/19 03:02:19;;;;;;;15.77;8.75;;;7.70;99.90;;;;;;5033460;28;19987;-78
2022/04/19 03:04:45;;;;;;;16.40;8.73;;;7.50;99.90;;;;;;5034233;28;20491;-78
2022/04/19 03:07:14;;;;;;;17.30;8.77;;;7.40;99.90;;;;;;5033460;28;20045;-78
2022/04/19 03:09:41;;;;;;;17.13;9.32;;;7.40;99.90;;;;;;5033519;28;20057;-77
2022/04/19 03:12:10;;;;;;;17.83;9.27;;;7.40;99.90;;;;;;5032874;28;20503;-78
2022/04/19 03:14:36;;;;;;;17.00;9.43;;;7.30;99.90;;;;;;5033435;28;20482;-77
2022/04/19 03:17:02;;;;;;;16.50;9.10;;;7.40;99.90;;;;;;5032904;28;20051;-78
2022/04/19 03:19:28;;;;;;;17.85;9.43;;;7.30;99.90;;;;;;5033719;28;20049;-78
2022/04/19 03:21:53;;;;;;;15.98;9.55;;;7.40;99.90;;;;;;5032040;28;20517;-78
2022/04/19 03:29:47;;;;;;;20.13;9.82;;;7.20;99.90;;;;;;5032722;28;20092;-77
2022/04/19 03:32:14;;;;;;;17.55;8.82;;;7.20;99.90;;;;;;5032288;28;20081;-78
2022/04/19 03:34:40;;;;;;;16.17;8.75;;;7.00;99.90;;;;;;5033606;28;20059;-77
2022/04/19 03:37:06;;;;;;;18.05;9.68;;;7.00;99.90;;;;;;5032898;28;20045;-77
2022/04/19 03:39:31;;;;;;;15.02;8.82;;;6.90;99.90;;;;;;5032323;28;20052;-77
2022/04/19 03:41:58;;;;;;;16.00;9.52;;;7.00;99.90;;;;;;5016174;28;20087;-78
2022/04/19 03:44:27;;;;;;;23.15;9.73;;;6.90;99.90;;;;;;5015673;28;20056;-78
2022/04/19 03:47:08;;;;;;;17.42;9.85;;;7.00;99.90;;;;;;5032726;28;20060;-78
2022/04/19 03:49:39;;;;;;;18.02;9.40;;;6.70;99.90;;;;;;5002566;28;20084;-77
2022/04/19 03:52:06;;;;;;;19.27;9.25;;;6.60;99.90;;;;;;5032575;28;20052;-78
2022/04/19 03:54:34;;;;;;;20.77;10.02;;;6.60;99.90;;;;;;5032501;28;20055;-78
2022/04/19 03:57:06;;;;;;;21.10;9.68;;;6.60;99.90;;;;;;4999696;28;20056;-78
2022/04/19 03:59:33;;;;;;;20.65;10.18;;;6.60;99.90;;;;;;5032363;28;20049;-77
2022/04/19 04:01:59;;;;;;;17.30;9.50;;;6.60;99.90;;;;;;5031952;28;20057;-78
2022/04/19 04:04:30;;;;;;;18.48;9.45;;;6.60;99.90;;;;;;5032698;28;20110;-77
2022/04/19 04:07:09;;;;;;;15.80;9.60;;;6.50;99.90;;;;;;5032267;28;20567;-78
2022/04/19 04:09:37;;;;;;;18.83;8.82;;;6.50;99.90;;;;;;5032026;28;20080;-78
2022/04/19 04:12:12;;;;;;;16.55;9.07;;;6.50;99.90;;;;;;5015983;28;20088;-78
2022/04/19 04:14:39;;;;;;;14.80;8.90;;;6.40;99.90;;;;;;5015502;28;20115;-77
2022/04/19 04:17:05;;;;;;;17.48;9.43;;;6.40;99.90;;;;;;5015223;28;20053;-78
2022/04/19 04:19:31;;;;;;;16.60;9.07;;;6.40;99.90;;;;;;5032801;28;20048;-78
2022/04/19 04:21:57;;;;;;;18.20;9.57;;;6.40;99.90;;;;;;5032159;28;20508;-78
2022/04/19 04:24:22;;;;;;;16.63;8.80;;;6.40;99.90;;;;;;5031752;28;20052;-77
2022/04/19 04:26:48;;;;;;;20.67;9.95;;;6.40;99.90;;;;;;5015935;28;20398;-78
2022/04/19 04:29:14;;;;;;;16.38;9.48;;;6.30;99.90;;;;;;5014979;28;20041;-77
2022/04/19 04:31:40;;;;;;;17.88;9.43;;;6.40;99.90;;;;;;5015923;28;20056;-77
2022/04/19 04:34:06;;;;;;;18.35;9.23;;;6.40;99.90;;;;;;5031989;28;20136;-78
2022/04/19 04:36:32;;;;;;;20.20;9.82;;;6.40;99.90;;;;;;5032398;28;20037;-78
2022/04/19 04:38:58;;;;;;;17.98;9.20;;;6.50;99.90;;;;;;5030921;28;20184;-78
2022/04/19 04:41:24;;;;;;;18.52;9.23;;;6.60;99.90;;;;;;5012580;28;20433;-77
2022/04/19 04:43:49;;;;;;;16.05;9.02;;;6.40;99.90;;;;;;5011817;28;20049;-78
2022/04/19 04:51:43;;;;;;;18.10;8.88;;;6.50;99.90;;;;;;5031378;28;20049;-78
2022/04/19 04:54:09;;;;;;;15.68;8.82;;;6.30;99.90;;;;;;5014798;28;20049;-78
2022/04/19 04:56:35;;;;;;;16.98;9.73;;;6.40;99.90;;;;;;5032373;28;20133;-78
2022/04/19 04:59:00;;;;;;;17.30;9.68;;;6.40;99.90;;;;;;5018545;28;20041;-78
2022/04/19 05:01:26;;;;;;;16.48;8.82;;;6.40;99.90;;;;;;5035750;28;20100;-78
2022/04/19 05:03:52;;;;;;;16.45;9.57;;;6.50;99.90;;;;;;5018811;28;20053;-79
2022/04/19 05:06:17;;;;;;;16.58;8.93;;;6.90;99.90;;;;;;5015756;28;20045;-78
2022/04/19 05:08:43;;;;;;;18.58;10.00;;;6.60;99.90;;;;;;5035373;28;20041;-79
2022/04/19 05:11:09;;;;;;;16.60;9.32;;;6.60;99.90;;;;;;5018400;28;20418;-79
2022/04/19 05:13:35;;;;;;;18.10;9.90;;;6.60;99.90;;;;;;5017470;28;20106;-79
2022/04/19 05:16:01;;;;;;;;;;;6.60;99.90;;;;;;5035404;28;20053;-79
2022/04/19 05:18:27;;;;;;;20.42;9.48;;;6.70;99.90;;;;;;5035992;28;19928;-79
2022/04/19 05:20:53;;;;;;;20.48;10.15;;;6.70;99.90;;;;;;5019474;28;20041;-79
2022/04/19 05:23:20;;;;;;;18.85;8.88;;;6.80;99.90;;;;;;5033848;28;20049;-79
2022/04/19 05:25:46;;;;;;;19.27;10.00;;;6.90;99.90;;;;;;5035806;28;20060;-79
2022/04/19 05:28:12;;;;;;;18.60;9.07;;;6.90;99.90;;;;;;5034456;28;20045;-79
2022/04/19 05:30:38;;;;;;;15.27;9.70;;;7.00;99.90;;;;;;5035195;28;20082;-79
2022/04/19 05:33:05;;;;;;;17.35;10.30;;;7.80;99.90;;;;;;5035047;28;20131;-79
2022/04/19 05:35:31;;;;;;;17.00;9.13;;;7.10;99.90;;;;;;5019071;28;20092;-79
2022/04/19 05:37:58;;;;;;;17.25;8.90;;;7.20;99.90;;;;;;5018315;28;20053;-79
2022/04/19 05:40:24;;;;;;;14.82;8.13;;;7.20;99.90;;;;;;5002094;28;20080;-78
2022/04/19 05:42:50;;;;;;;15.32;7.72;;;7.30;99.90;;;;;;5034992;28;20073;-79
2022/04/19 05:45:16;;;;;;;12.65;6.75;;;7.40;99.90;;;;;;5033094;28;20103;-80
2022/04/19 05:47:42;;;;;;;12.13;7.07;;;7.50;99.90;;;;;;5034878;28;20049;-79
2022/04/19 05:50:09;;;;;;;13.10;6.80;;;7.70;99.90;;;;;;5018557;28;20084;-79
2022/04/19 05:52:35;;;;;;;15.32;6.78;;;7.80;99.90;;;;;;5033940;28;20099;-80
2022/04/19 05:55:01;;;;;;;10.73;6.13;;;7.90;99.90;;;;;;5034676;28;20494;-79
2022/04/19 05:57:26;;;;;;;13.60;6.90;;;8.00;99.90;;;;;;5035044;28;20126;-79
2022/04/19 05:59:52;;;;;;;13.68;6.38;;;8.30;99.90;;;;;;5017747;28;20383;-79
2022/04/19 06:05:02;;;;;;;12.75;6.72;;;8.30;99.90;;;;;;5033914;28;20168;-79
2022/04/19 06:07:30;;;;;;;14.77;5.72;;;8.40;99.90;;;;;;5034411;28;20092;-79
2022/04/19 06:09:56;;;;;;;12.70;6.32;;;8.50;99.90;;;;;;5018638;28;20056;-79
2022/04/19 06:12:22;;;;;;;11.82;6.57;;;8.60;99.90;;;;;;5017420;28;20590;-79
2022/04/19 06:14:48;;;;;;;10.75;6.18;;;8.60;99.90;;;;;;5001363;28;20041;-79
2022/04/19 06:17:15;;;;;;;10.63;6.20;;;8.90;99.90;;;;;;5033467;28;20049;-79
2022/04/19 06:19:41;;;;;;;11.73;6.05;;;8.80;99.90;;;;;;5034973;28;20045;-79
2022/04/19 06:22:07;;;;;;;14.45;6.13;;;8.90;99.90;;;;;;5017847;28;20045;-79
2022/04/19 06:24:33;;;;;;;13.38;5.95;;;8.90;99.90;;;;;;5017426;28;20048;-79
2022/04/19 06:26:58;;;;;;;12.15;6.18;;;9.00;99.90;;;;;;5034420;28;20045;-79
2022/04/19 06:29:24;;;;;;;11.73;5.65;;;9.10;99.90;;;;;;5015568;28;20186;-79
2022/04/19 06:31:50;;;;;;;12.80;5.95;;;9.10;99.90;;;;;;5001104;28;20044;-79
2022/04/19 06:34:16;;;;;;;11.95;6.07;;;9.20;99.90;;;;;;5033698;28;20048;-79
2022/04/19 06:36:43;;;;;;;12.80;6.15;;;9.20;99.90;;;;;;5034255;28;20388;-79
2022/04/19 06:39:09;;;;;;;12.00;6.13;;;9.60;99.90;;;;;;5016781;28;20055;-79
2022/04/19 06:41:34;;;;;;;13.13;6.57;;;9.30;99.90;;;;;;5034274;28;20045;-79
2022/04/19 06:44:00;;;;;;;12.27;6.70;;;9.40;99.90;;;;;;5016663;28;20044;-80
2022/04/19 06:46:26;;;;;;;11.73;6.07;;;9.40;99.90;;;;;;5032780;28;20491;-79
2022/04/19 06:48:56;;;;;;;;;;;9.50;99.90;;;;;;5033890;28;20083;-81
2022/04/19 06:51:22;;;;;;;11.57;6.10;;;9.60;99.90;;;;;;5013489;28;19920;-79
2022/04/19 06:53:48;;;;;;;11.50;5.43;;;9.60;99.90;;;;;;4995271;28;20041;-80
2022/04/19 06:56:14;;;;;;;;;;;9.60;99.90;;;;;;5030364;28;20084;-79
2022/04/19 06:58:40;;;;;;;11.75;6.20;;;9.60;99.90;;;;;;5029871;28;19960;-80
2022/04/19 07:01:07;;;;;;;14.02;5.93;;;9.70;99.90;;;;;;5025082;28;20041;-78
2022/04/19 07:03:33;;;;;;;11.88;6.13;;;9.70;99.90;;;;;;5031000;28;20048;-79
2022/04/19 07:05:59;;;;;;;;;;;9.70;99.90;;;;;;5048004;28;20053;-79
2022/04/19 07:08:25;;;;;;;12.15;6.40;;;9.70;99.90;;;;;;5029736;28;19920;-79
2022/04/19 07:10:50;;;;;;;13.63;5.95;;;9.80;99.90;;;;;;5031191;28;20084;-79
2022/04/19 07:13:16;;;;;;;12.20;6.18;;;9.80;99.90;;;;;;5026797;28;20045;-80
2022/04/19 07:15:42;;;;;;;13.13;6.50;;;9.90;99.90;;;;;;5015530;28;20045;-85
2022/04/19 07:18:07;;;;;;;9.82;5.82;;;9.90;99.90;;;;;;5014883;28;20045;-80
2022/04/19 07:29:00;;;;;;;14.75;6.13;;;10.20;99.90;;;;;;5018887;28;20064;-80
2022/04/19 07:31:26;;;;;;;10.25;5.80;;;10.40;99.90;;;;;;5014574;28;20044;-80
2022/04/19 07:33:52;;;;;;;12.57;6.43;;;10.40;99.90;;;;;;5011864;28;20052;-81
2022/04/19 07:36:19;;;;;;;11.00;5.55;;;10.50;99.90;;;;;;5028120;28;20128;-81
2022/04/19 07:38:44;;;;;;;10.52;5.38;;;10.70;99.90;;;;;;5011765;28;20095;-81
2022/04/19 07:41:10;;;;;;;11.48;5.55;;;10.70;99.90;;;;;;5011603;28;20545;-80
2022/04/19 07:43:36;;;;;;;9.15;5.28;;;10.80;99.90;;;;;;5027261;28;20519;-81
2022/04/19 07:46:04;;;;;;;10.20;5.55;;;10.90;99.90;;;;;;4994655;28;20107;-80
2022/04/19 07:48:30;;;;;;;11.70;4.95;;;11.00;99.90;;;;;;5012432;28;20415;-81
2022/04/19 07:50:56;;;;;;;10.50;5.10;;;11.00;99.90;;;;;;5031587;28;20084;-80
2022/04/19 07:53:23;;;;;;;10.98;5.75;;;11.10;99.90;;;;;;5009533;28;20093;-80
2022/04/19 07:55:48;;;;;;;;;;;11.20;99.90;;;;;;4994056;28;20057;-80
2022/04/19 07:58:14;;;;;;;9.43;5.25;;;11.30;99.90;;;;;;5029693;28;19924;-79
2022/04/19 08:00:40;;;;;;;13.35;6.00;;;11.30;99.90;;;;;;5014350;28;20045;-80
2022/04/19 08:03:06;;;;;;;11.45;5.30;;;11.50;99.90;;;;;;4998645;28;20045;-80
2022/04/19 08:05:32;;;;;;;9.85;5.15;;;11.60;99.90;;;;;;4998240;28;20826;-80
2022/04/19 08:07:58;;;;;;;9.30;5.43;;;11.60;99.90;;;;;;5014197;28;20049;-80
2022/04/19 08:10:23;;;;;;;10.50;5.30;;;11.70;99.90;;;;;;5013047;28;20102;-80
2022/04/19 08:12:49;;;;;;;10.75;5.60;;;11.70;99.90;;;;;;5014564;28;20132;-80
2022/04/19 08:15:15;;;;;;;12.13;6.22;;;11.80;99.90;;;;;;5026753;28;20049;-79
2022/04/19 08:17:41;;;;;;;11.68;6.38;;;11.80;99.90;;;;;;5027594;28;20045;-81
2022/04/19 08:20:08;;;;;;;12.50;6.05;;;11.90;99.90;;;;;;5028528;28;20049;-80
2022/04/19 08:22:35;;;;;;;10.60;6.00;;;11.90;99.90;;;;;;5029998;28;20048;-79
2022/04/19 08:25:01;;;;;;;12.48;5.40;;;11.80;99.90;;;;;;5030761;28;20723;-78
2022/04/19 08:27:26;;;;;;;10.25;5.05;;;11.90;99.90;;;;;;5030237;28;20123;-79
2022/04/19 08:29:52;;;;;;;10.43;5.55;;;12.00;99.90;;;;;;5030203;28;20084;-80
2022/04/19 08:32:18;;;;;;;9.65;5.40;;;12.10;99.90;;;;;;5016751;28;20068;-79
2022/04/19 08:34:45;;;;;;;8.95;5.30;;;12.10;99.90;;;;;;5034804;28;20196;-79
2022/04/19 08:37:11;;;;;;;12.07;5.88;;;12.10;99.90;;;;;;5031731;28;20147;-78
2022/04/19 08:39:37;;;;;;;9.43;5.10;;;12.10;99.90;;;;;;5014205;28;20180;-79
2022/04/19 08:42:04;;;;;;;8.48;4.20;;;12.10;99.90;;;;;;5007125;28;20136;-77
2022/04/19 08:44:30;;;;;;;11.32;4.90;;;12.20;99.90;;;;;;5032814;28;20276;-75
2022/04/19 08:46:57;;;;;;;10.65;4.38;;;12.30;99.90;;;;;;4996697;28;20486;-77
2022/04/19 08:49:25;;;;;;;10.45;4.25;;;12.40;99.90;;;;;;5027037;28;20094;-77
2022/04/19 08:51:51;;;;;;;7.35;3.80;;;12.50;99.90;;;;;;5034918;28;20067;-79
2022/04/19 08:59:45;;;;;;;5.75;3.13;;;12.70;99.90;;;;;;5014280;28;20057;-77
2022/04/19 09:02:30;;;;;;;7.78;3.60;;;12.70;99.90;;;;;;5031352;28;20049;-77
2022/04/19 09:05:14;;;;;;;7.13;3.10;;;12.90;97.70;;;;;;5031605;28;20192;-76
2022/04/19 09:07:41;;;;;;;7.53;3.35;;;13.00;98.10;;;;;;5000037;28;20057;-77
2022/04/19 09:10:11;;;;;;;5.72;2.60;;;13.10;98.00;;;;;;5017901;28;20072;-76
2022/04/19 09:12:37;;;;;;;6.30;2.80;;;13.20;97.30;;;;;;5032117;28;20049;-75
2022/04/19 09:15:06;;;;;;;5.57;2.65;;;13.20;94.00;;;;;;5015803;28;20052;-76
2022/04/19 09:17:34;;;;;;;5.15;2.65;;;13.30;92.30;;;;;;5015123;28;20041;-76
2022/04/19 09:20:18;;;;;;;5.25;2.50;;;13.40;86.80;;;;;;5033366;28;20176;-76
2022/04/19 09:22:45;;;;;;;3.67;1.98;;;13.40;84.00;;;;;;5034107;28;20064;-76
2022/04/19 09:25:38;;;;;;;4.30;2.05;;;13.50;80.10;;;;;;5017736;28;20045;-76
2022/04/19 09:28:17;;;;;;;3.97;2.22;;;13.60;77.40;;;;;;5030570;28;20060;-75
2022/04/19 09:30:44;;;;;;;4.82;2.38;;;13.60;76.70;;;;;;5034076;28;20084;-75
2022/04/19 09:33:12;;;;;;;5.30;2.40;;;13.70;75.40;;;;;;5033195;28;20494;-75
2022/04/19 09:35:49;;;;;;;7.95;2.63;;;13.70;74.90;;;;;;5016717;28;20140;-77
2022/04/19 09:38:16;;;;;;;5.40;2.60;;;13.80;72.20;;;;;;5031949;28;20471;-78
2022/04/19 09:40:43;;;;;;;7.53;2.63;;;13.80;71.70;;;;;;5033399;28;20045;-76
2022/04/19 09:43:16;;;;;;;6.10;3.17;;;13.90;71.60;;;;;;5016705;28;20406;-78
2022/04/19 09:45:56;;;;;;;7.80;3.20;;;14.00;72.60;;;;;;5034784;28;20168;-77
2022/04/19 09:48:34;;;;;;;7.50;3.10;;;14.10;73.00;;;;;;5034791;28;20053;-77
2022/04/19 09:51:04;;;;;;;5.60;2.83;;;14.10;73.60;;;;;;5014916;28;20049;-77
2022/04/19 09:53:37;;;;;;;5.82;2.60;;;14.20;73.40;;;;;;5014085;28;20064;-76
2022/04/19 09:56:10;;;;;;;8.43;2.72;;;14.30;73.00;;;;;;5015292;28;20061;-77
2022/04/19 09:58:38;;;;;;;6.18;2.67;;;14.40;72.70;;;;;;5018059;28;20281;-77
2022/04/19 10:01:04;;;;;;;5.13;2.50;;;14.50;70.60;;;;;;5033194;28;20393;-77
2022/04/19 10:09:02;;;;;;;6.17;1.87;;;14.70;65.70;;;;;;5048681;28;20072;-77
2022/04/19 10:11:28;;;;;;;3.95;1.65;;;14.80;63.30;;;;;;5029281;28;20038;-77
2022/04/19 10:13:55;;;;;;;;;;;14.80;63.40;;;;;;5031925;28;20601;-78
2022/04/19 10:16:21;;;;;;;8.35;2.45;;;14.80;62.80;;;;;;5028944;28;19955;-78
2022/04/19 10:18:47;;;;;;;5.93;1.90;;;14.80;63.20;;;;;;5031840;28;20398;-77
2022/04/19 10:21:15;;;;;;;;;;;14.90;63.70;;;;;;5031120;28;20578;-78
2022/04/19 10:23:41;;;;;;;5.15;1.92;;;14.90;63.30;;;;;;5044027;28;19970;-78
2022/04/19 10:26:21;;;;;;;3.65;2.10;;;15.00;63.10;;;;;;5029501;28;20046;-77
2022/04/19 10:28:50;;;;;;;3.13;1.73;;;15.10;63.40;;;;;;5031316;28;20106;-77
2022/04/19 10:31:28;;;;;;;5.80;1.85;;;15.10;63.20;;;;;;5028255;28;20049;-77
2022/04/19 10:33:54;;;;;;;4.60;1.85;;;15.20;62.00;;;;;;5030912;28;20048;-77
2022/04/19 10:36:45;;;;;;;4.10;1.70;;;15.30;62.60;;;;;;5030775;28;20045;-79
2022/04/19 10:39:15;;;;;;;2.13;1.40;;;15.30;61.80;;;;;;5031051;28;20053;-78
2022/04/19 10:42:00;;;;;;;4.80;1.90;;;15.30;61.00;;;;;;5029039;28;20151;-77
2022/04/19 10:44:29;;;;;;;4.88;2.00;;;15.30;61.70;;;;;;5035778;28;20475;-76
2022/04/19 10:47:15;;;;;;;5.20;1.90;;;15.30;61.70;;;;;;5007082;28;20076;-79
2022/04/19 10:50:00;;;;;;;2.75;1.75;;;15.40;61.30;;;;;;5008456;28;20360;-77
2022/04/19 10:52:40;;;;;;;5.75;2.53;;;15.50;62.20;;;;;;5002795;28;20129;-78
2022/04/19 10:55:24;;;;;;;5.53;2.15;;;15.60;63.20;;;;;;5006395;28;20132;-77
2022/04/19 10:58:08;;;;;;;6.68;2.30;;;15.70;63.10;;;;;;5008328;28;20042;-77
2022/04/19 11:00:36;;;;;;;6.03;2.10;;;15.80;63.60;;;;;;4972898;28;20058;-77
2022/04/19 11:03:07;;;;;;;5.05;1.80;;;15.90;63.20;;;;;;5000697;28;20046;-77
2022/04/19 11:05:48;;;;;;;2.33;1.70;;;15.90;62.60;;;;;;4989739;28;20054;-77
2022/04/19 11:08:26;;;;;;;3.20;1.70;;;16.00;62.50;;;;;;5005172;28;20450;-78
2022/04/19 11:11:04;;;;;;;3.80;1.88;;;16.10;62.40;;;;;;5002134;28;20180;-77
2022/04/19 11:13:38;;;;;;;4.50;1.70;;;16.10;62.50;;;;;;5000037;28;20559;-77
2022/04/19 11:16:03;;;;;;;2.97;1.55;;;16.20;62.40;;;;;;4991897;28;20108;-77
2022/04/19 11:18:39;;;;;;;6.63;2.08;;;16.30;61.90;;;;;;4992685;28;20050;-77
2022/04/19 11:21:06;;;;;;;7.60;1.80;;;16.40;61.90;;;;;;5008390;28;20053;-77
2022/04/19 11:23:43;;;;;;;6.32;2.00;;;16.50;61.80;;;;;;5004018;28;20042;-77
2022/04/19 11:26:34;;;;;;;5.38;1.98;;;16.70;61.30;;;;;;5000757;28;20057;-78
2022/04/19 11:29:27;;;;;;;5.95;1.73;;;16.80;60.80;;;;;;4990527;28;20503;-82
2022/04/19 11:31:53;;;;;;;4.63;1.67;;;16.90;59.70;;;;;;5006592;28;20058;-79
2022/04/19 11:34:19;;;;;;;4.63;1.75;;;16.90;60.10;;;;;;5008734;28;20080;-79
2022/04/19 11:36:44;;;;;;;6.30;1.85;;;17.00;60.50;;;;;;5008498;28;20042;-79
2022/04/19 11:47:54;;;;;;;5.15;1.90;;;17.50;60.10;;;;;;5022104;28;20095;-79
2022/04/19 11:50:26;;;;;;;3.67;1.73;;;17.70;59.70;;;;;;5031964;28;20080;-78
2022/04/19 11:52:51;;;;;;;2.88;1.65;;;17.80;58.50;;;;;;5026917;28;20410;-78
2022/04/19 11:55:19;;;;;;;5.50;1.83;;;17.80;57.20;;;;;;4995855;28;20049;-79
2022/04/19 11:57:45;;;;;;;3.45;2.15;;;17.90;58.10;;;;;;4989219;28;20049;-78
2022/04/19 12:00:16;;;;;;;6.65;2.42;;;18.10;58.50;;;;;;5014844;28;20048;-76
2022/04/19 12:02:41;;;;;;;3.20;2.03;;;18.30;58.80;;;;;;5030666;28;20053;-76
2022/04/19 12:05:07;;;;;;;4.55;2.10;;;18.50;58.80;;;;;;5025713;28;20098;-76
2022/04/19 12:07:44;;;;;;;;;;;18.70;58.20;;;;;;5024221;28;20059;-79
2022/04/19 12:10:10;;;;;;;6.72;1.83;;;19.00;58.50;;;;;;5031112;28;20452;-79
2022/04/19 12:12:35;;;;;;;4.75;2.05;;;19.30;58.90;;;;;;5031272;28;20059;-79
2022/04/19 12:15:01;;;;;;;;;;;19.50;58.90;;;;;;5031526;28;20041;-79
2022/04/19 12:17:26;;;;;;;2.58;1.83;;;19.80;56.90;;;;;;5014624;28;19928;-79
2022/04/19 12:20:05;;;;;;;;;;;20.10;58.70;;;;;;5031672;28;20131;-79
2022/04/19 12:22:34;;;;;;;3.15;1.80;;;20.20;55.60;;;;;;5030452;28;19920;-79
2022/04/19 12:25:00;;;;;;;4.82;1.63;;;20.30;55.00;;;;;;5031241;28;20045;-79
2022/04/19 12:27:28;;;;;;;3.05;1.80;;;20.40;54.70;;;;;;5031944;28;20051;-79
2022/04/19 12:29:55;;;;;;;2.75;1.60;;;20.50;53.40;;;;;;5030887;28;20056;-79
2022/04/19 12:32:21;;;;;;;3.75;1.50;;;20.60;51.80;;;;;;5031293;28;20049;-79
2022/04/19 12:34:47;;;;;;;2.85;1.70;;;20.60;51.60;;;;;;5031263;28;20635;-79
2022/04/19 12:37:18;;;;;;;3.53;1.60;;;20.60;51.70;;;;;;4999071;28;20052;-79
2022/04/19 12:40:03;;;;;;;2.97;1.80;;;20.70;52.60;;;;;;5030872;28;20049;-79
2022/04/19 12:42:29;;;;;;;7.15;1.90;;;21.00;52.20;;;;;;5014735;28;20139;-80
2022/04/19 12:45:10;;;;;;;3.00;1.65;;;21.30;52.50;;;;;;5030467;28;20124;-79
2022/04/19 12:47:37;;;;;;;5.53;1.85;;;21.50;51.60;;;;;;5011019;28;20060;-79
2022/04/19 12:50:11;;;;;;;4.28;2.47;;;21.70;51.20;;;;;;5020761;28;20053;-79
2022/04/19 12:52:37;;;;;;;4.45;2.38;;;21.80;50.40;;;;;;5030740;28;20057;-79
2022/04/19 12:55:04;;;;;;;8.90;2.20;;;21.80;48.70;;;;;;5031328;28;20099;-79
2022/04/19 12:57:30;;;;;;;5.20;2.35;;;21.70;49.10;;;;;;5014969;28;20133;-80
2022/04/19 12:59:57;;;;;;;3.70;1.98;;;21.80;49.50;;;;;;5030399;28;20737;-79
2022/04/19 13:02:23;;;;;;;4.65;2.00;;;21.80;48.50;;;;;;5014750;28;20131;-79
2022/04/19 13:04:49;;;;;;;4.78;2.00;;;22.00;49.30;;;;;;5030830;28;20168;-79
2022/04/19 13:12:45;;;;;;;4.65;2.22;;;22.80;48.90;;;;;;5030796;28;20053;-79
2022/04/19 13:15:11;;;;;;;7.05;2.03;;;23.00;48.90;;;;;;5030504;28;20549;-79
2022/04/19 13:17:39;;;;;;;4.60;1.75;;;23.20;47.30;;;;;;5030484;28;20049;-79
2022/04/19 13:20:06;;;;;;;4.10;1.83;;;23.30;46.20;;;;;;5035109;28;20142;-79
2022/04/19 13:22:32;;;;;;;2.85;1.90;;;23.50;46.70;;;;;;5034394;28;20041;-80
2022/04/19 13:24:59;;;;;;;8.82;2.95;;;23.60;45.10;;;;;;5034707;28;20123;-79
2022/04/19 13:27:26;;;;;;;3.80;1.88;;;23.70;44.00;;;;;;5030895;28;20047;-79
2022/04/19 13:29:53;;;;;;;2.53;1.65;;;23.80;44.20;;;;;;5032607;28;20041;-78
2022/04/19 13:32:20;;;;;;;3.55;2.00;;;24.00;44.80;;;;;;5050080;28;20057;-80
2022/04/19 13:34:46;;;;;;;3.50;2.00;;;24.10;43.60;;;;;;5010593;28;20045;-80
2022/04/19 13:37:13;;;;;;;4.18;1.85;;;24.10;43.40;;;;;;5017169;28;20179;-79
2022/04/19 13:39:39;;;;;;;4.80;2.00;;;24.30;44.00;;;;;;5032068;28;20154;-79
2022/04/19 13:42:05;;;;;;;6.78;1.83;;;24.70;43.40;;;;;;5033464;28;20045;-80
2022/04/19 13:44:31;;;;;;;3.83;2.00;;;24.90;42.30;;;;;;5032598;28;20036;-79